Time;durP1;ratioP1;P1;durP2;ratioP2;P2;SDS_P1;SDS_P2;PMS_P1;PMS_P2;Temp;Humidity;BMP_temperature;BMP_pressure;BME280_temperature;BME280_humidity;BME280_pressure;Samples;Min_cycle;Max_cycle;Signal;HPM_P1;HPM_P2
2021/11/21 00:01:29;;;;;;;34.17;27.83;;;8.20;99.90;;;;;;5080453;28;20469;-70
2021/11/21 00:03:57;;;;;;;39.83;29.67;;;8.10;99.90;;;;;;5085843;28;20450;-72
2021/11/21 00:06:25;;;;;;;40.43;29.60;;;8.00;99.90;;;;;;5081030;28;20471;-72
2021/11/21 00:08:52;;;;;;;38.97;29.67;;;8.10;99.90;;;;;;5077823;28;20466;-72
2021/11/21 00:11:20;;;;;;;41.53;31.50;;;8.10;99.90;;;;;;5083591;28;20981;-70
2021/11/21 00:13:48;;;;;;;39.60;30.53;;;8.10;99.90;;;;;;5077208;28;20463;-70
2021/11/21 00:16:17;;;;;;;39.13;30.60;;;8.00;99.90;;;;;;5091393;28;20979;-70
2021/11/21 00:18:44;;;;;;;49.33;32.37;;;7.80;99.90;;;;;;5079035;28;20478;-71
2021/11/21 00:21:11;;;;;;;43.50;31.70;;;7.80;99.90;;;;;;5083113;28;20460;-70
2021/11/21 00:23:39;;;;;;;48.47;33.20;;;7.80;99.90;;;;;;5074618;28;20491;-70
2021/11/21 00:26:06;;;;;;;43.67;33.00;;;7.70;99.90;;;;;;5073074;28;20451;-70
2021/11/21 00:28:33;;;;;;;46.20;31.43;;;7.90;99.90;;;;;;5079875;28;20919;-71
2021/11/21 00:31:00;;;;;;;42.53;32.33;;;7.80;99.90;;;;;;5081772;28;20898;-71
2021/11/21 00:33:30;;;;;;;48.53;33.73;;;7.70;99.90;;;;;;5080222;28;20477;-70
2021/11/21 00:35:57;;;;;;;47.93;35.47;;;7.70;99.90;;;;;;5081861;28;20819;-70
2021/11/21 00:38:23;;;;;;;43.57;33.73;;;7.70;99.90;;;;;;5083828;28;20461;-74
2021/11/21 00:40:52;;;;;;;48.57;35.33;;;7.70;99.90;;;;;;5081452;28;20495;-74
2021/11/21 00:43:20;;;;;;;46.20;33.83;;;7.70;99.90;;;;;;5079868;28;20869;-73
2021/11/21 00:45:46;;;;;;;47.20;34.60;;;7.60;99.90;;;;;;5083476;28;21048;-70
2021/11/21 00:48:18;;;;;;;50.20;33.27;;;7.50;99.90;;;;;;5083294;28;20469;-71
2021/11/21 00:50:47;;;;;;;42.13;34.70;;;7.60;99.90;;;;;;5083163;28;20561;-71
2021/11/21 00:53:14;;;;;;;52.90;31.77;;;7.60;99.90;;;;;;5085776;28;20461;-70
2021/11/21 00:55:44;;;;;;;44.80;33.20;;;7.50;99.90;;;;;;5073472;28;20457;-71
2021/11/21 00:58:13;;;;;;;45.23;34.00;;;7.60;99.90;;;;;;5077200;28;20854;-73
2021/11/21 01:00:42;;;;;;;44.33;34.20;;;7.70;99.90;;;;;;5082816;28;20488;-74
2021/11/21 01:03:12;;;;;;;45.97;34.80;;;7.70;99.90;;;;;;5082613;28;20461;-70
2021/11/21 01:05:40;;;;;;;46.00;34.20;;;7.70;99.90;;;;;;5083929;28;20551;-69
2021/11/21 01:08:08;;;;;;;50.37;36.80;;;7.50;99.90;;;;;;5082887;28;20463;-69
2021/11/21 01:10:35;;;;;;;50.40;37.80;;;7.50;99.90;;;;;;5077897;28;20943;-70
2021/11/21 01:13:03;;;;;;;51.63;38.30;;;7.60;99.90;;;;;;5078759;28;20462;-70
2021/11/21 01:15:30;;;;;;;47.83;40.43;;;7.60;99.90;;;;;;5086377;28;20465;-71
2021/11/21 01:17:58;;;;;;;55.67;41.20;;;7.60;99.90;;;;;;5083353;28;20464;-69
2021/11/21 01:20:29;;;;;;;51.83;41.77;;;7.60;99.90;;;;;;5082918;28;20477;-72
2021/11/21 01:22:56;;;;;;;56.53;40.13;;;7.60;99.90;;;;;;5078900;28;20465;-69
2021/11/21 01:25:25;;;;;;;49.60;41.43;;;7.60;99.90;;;;;;5080885;28;20458;-69
2021/11/21 01:27:51;;;;;;;53.13;41.53;;;7.50;99.90;;;;;;5077647;28;20455;-71
2021/11/21 01:30:20;;;;;;;53.23;41.23;;;7.40;99.90;;;;;;5074416;28;20466;-69
2021/11/21 01:32:48;;;;;;;49.73;40.30;;;7.50;99.90;;;;;;5083635;28;20459;-69
2021/11/21 01:35:15;;;;;;;55.73;43.03;;;7.50;99.90;;;;;;5077575;28;20821;-69
2021/11/21 01:37:43;;;;;;;54.77;44.00;;;7.60;99.90;;;;;;5073620;28;20478;-71
2021/11/21 01:40:12;;;;;;;43.93;39.13;;;7.50;99.90;;;;;;5080231;28;20504;-69
2021/11/21 01:42:41;;;;;;;54.40;41.87;;;7.50;99.90;;;;;;5079746;28;20848;-72
2021/11/21 01:45:09;;;;;;;53.73;41.40;;;7.40;99.90;;;;;;5074342;28;20473;-69
2021/11/21 01:47:38;;;;;;;52.40;40.90;;;7.50;99.90;;;;;;5087215;28;20458;-70
2021/11/21 01:50:05;;;;;;;51.13;40.60;;;7.50;99.90;;;;;;5075562;28;20849;-71
2021/11/21 01:52:33;;;;;;;52.90;42.07;;;7.40;99.90;;;;;;5076611;28;20458;-69
2021/11/21 01:55:00;;;;;;;57.93;44.93;;;7.50;99.90;;;;;;5076966;28;20488;-71
2021/11/21 01:57:27;;;;;;;60.73;41.60;;;7.30;99.90;;;;;;5076282;28;20461;-71
2021/11/21 01:59:59;;;;;;;59.17;45.00;;;7.40;99.90;;;;;;5084205;28;20485;-70
2021/11/21 02:02:26;;;;;;;64.83;48.03;;;7.40;99.90;;;;;;5079142;28;20506;-70
2021/11/21 02:04:53;;;;;;;62.80;51.10;;;7.40;99.90;;;;;;5079249;28;20462;-71
2021/11/21 02:07:19;;;;;;;58.33;47.50;;;7.40;99.90;;;;;;5079627;28;20469;-69
2021/11/21 02:09:46;;;;;;;65.47;49.20;;;7.50;99.90;;;;;;5081109;28;20463;-72
2021/11/21 02:12:13;;;;;;;62.33;51.20;;;7.40;99.90;;;;;;5082217;28;20471;-69
2021/11/21 02:14:40;;;;;;;63.70;50.63;;;7.40;99.90;;;;;;5075459;28;20469;-73
2021/11/21 02:17:08;;;;;;;68.90;50.10;;;7.40;99.90;;;;;;5081634;28;20467;-69
2021/11/21 02:19:35;;;;;;;77.10;53.83;;;7.40;99.90;;;;;;5081383;28;20497;-72
2021/11/21 02:22:03;;;;;;;71.60;52.33;;;7.50;99.90;;;;;;5078861;28;20476;-72
2021/11/21 02:24:30;;;;;;;68.53;53.13;;;7.50;99.90;;;;;;5082314;28;20456;-70
2021/11/21 02:26:57;;;;;;;61.37;51.23;;;7.60;99.90;;;;;;5078731;28;20464;-71
2021/11/21 02:29:25;;;;;;;64.57;50.10;;;7.50;99.90;;;;;;5083264;28;20952;-69
2021/11/21 02:31:52;;;;;;;65.87;50.70;;;7.50;99.90;;;;;;5077901;28;20546;-71
2021/11/21 02:34:19;;;;;;;67.90;51.77;;;7.50;99.90;;;;;;5069198;28;20456;-72
2021/11/21 02:36:47;;;;;;;64.47;49.80;;;7.50;99.90;;;;;;5076888;28;20457;-70
2021/11/21 02:39:15;;;;;;;63.80;51.00;;;7.50;99.90;;;;;;5077164;28;20966;-70
2021/11/21 02:41:42;;;;;;;66.57;51.00;;;7.60;99.90;;;;;;5079127;28;20461;-68
2021/11/21 02:44:09;;;;;;;59.40;47.97;;;7.60;99.90;;;;;;5081594;28;20481;-72
2021/11/21 02:46:36;;;;;;;67.77;52.20;;;7.50;99.90;;;;;;5086152;28;20813;-72
2021/11/21 02:49:03;;;;;;;59.63;50.50;;;7.50;99.90;;;;;;5073063;28;20985;-70
2021/11/21 02:51:30;;;;;;;61.30;48.90;;;7.60;99.90;;;;;;5074935;28;20457;-70
2021/11/21 02:53:57;;;;;;;57.13;46.70;;;7.60;99.90;;;;;;5079488;28;20458;-69
2021/11/21 02:56:27;;;;;;;57.90;47.07;;;7.50;99.90;;;;;;5081550;28;20464;-70
2021/11/21 02:58:54;;;;;;;61.43;48.30;;;7.60;99.90;;;;;;5078294;28;20464;-70
2021/11/21 03:01:24;;;;;;;55.20;47.00;;;7.60;99.90;;;;;;5080727;28;20489;-72
2021/11/21 03:03:52;;;;;;;52.87;46.40;;;7.50;99.90;;;;;;5079861;28;20472;-70
2021/11/21 03:06:20;;;;;;;56.20;45.97;;;7.50;99.90;;;;;;5075503;28;20456;-72
2021/11/21 03:08:47;;;;;;;50.63;43.90;;;7.60;99.90;;;;;;5078011;28;21178;-70
2021/11/21 03:11:27;;;;;;;55.40;47.37;;;7.50;99.90;;;;;;5080828;28;20466;-70
2021/11/21 03:13:54;;;;;;;64.10;46.20;;;7.50;99.90;;;;;;5076166;28;20470;-69
2021/11/21 03:16:21;;;;;;;56.47;44.00;;;7.40;99.90;;;;;;5086360;28;20462;-72
2021/11/21 03:18:48;;;;;;;57.20;46.50;;;7.50;99.90;;;;;;5087150;28;20994;-69
2021/11/21 03:21:16;;;;;;;57.43;47.40;;;7.50;99.90;;;;;;5079181;28;20501;-69
2021/11/21 03:23:43;;;;;;;53.57;43.87;;;7.50;99.90;;;;;;5074043;28;20469;-69
2021/11/21 03:26:10;;;;;;;50.50;43.90;;;7.40;99.90;;;;;;5075487;28;20470;-69
2021/11/21 03:28:39;;;;;;;51.47;41.77;;;7.30;99.90;;;;;;5083892;28;20470;-70
2021/11/21 03:31:06;;;;;;;57.00;44.73;;;7.30;99.90;;;;;;5075576;28;20513;-71
2021/11/21 03:33:33;;;;;;;56.00;43.13;;;7.40;99.90;;;;;;5082069;28;20470;-69
2021/11/21 03:36:00;;;;;;;53.17;42.63;;;7.40;99.90;;;;;;5082820;28;20450;-72
2021/11/21 03:38:27;;;;;;;56.03;45.03;;;7.40;99.90;;;;;;5081613;28;20459;-71
2021/11/21 03:40:55;;;;;;;57.63;41.80;;;7.30;99.90;;;;;;5077936;28;20508;-70
2021/11/21 03:43:22;;;;;;;49.23;41.43;;;7.30;99.90;;;;;;5081163;28;20493;-70
2021/11/21 03:45:50;;;;;;;59.97;43.20;;;7.30;99.90;;;;;;5084681;28;20683;-73
2021/11/21 03:48:17;;;;;;;52.30;42.63;;;7.40;99.90;;;;;;5079140;28;20460;-70
2021/11/21 03:50:45;;;;;;;50.33;42.50;;;7.30;99.90;;;;;;5075571;28;20497;-72
2021/11/21 03:53:12;;;;;;;52.80;42.50;;;7.40;99.90;;;;;;5086677;28;20919;-70
2021/11/21 03:55:39;;;;;;;58.67;44.40;;;7.40;99.90;;;;;;5085981;28;20458;-70
2021/11/21 03:58:06;;;;;;;53.93;43.30;;;7.40;99.90;;;;;;5080778;28;20595;-71
2021/11/21 04:00:33;;;;;;;51.93;44.07;;;7.40;99.90;;;;;;5082184;28;20482;-69
2021/11/21 04:03:05;;;;;;;50.00;42.60;;;7.50;99.90;;;;;;5083861;28;20526;-69
2021/11/21 04:05:32;;;;;;;51.83;43.63;;;7.50;99.90;;;;;;5082449;28;20468;-72
2021/11/21 04:07:59;;;;;;;54.67;43.87;;;7.50;99.90;;;;;;5072511;28;20465;-70
2021/11/21 04:10:26;;;;;;;52.23;43.23;;;7.60;99.90;;;;;;5085993;28;20492;-70
2021/11/21 04:12:53;;;;;;;52.27;42.43;;;7.30;99.90;;;;;;5082064;28;20870;-71
2021/11/21 04:15:20;;;;;;;53.70;43.50;;;7.30;99.90;;;;;;5084690;28;20465;-70
2021/11/21 04:17:47;;;;;;;56.17;45.27;;;7.30;99.90;;;;;;5082353;28;20472;-73
2021/11/21 04:20:16;;;;;;;51.40;45.17;;;7.40;99.90;;;;;;5075334;28;20530;-70
2021/11/21 04:22:44;;;;;;;52.70;45.00;;;7.40;99.90;;;;;;5075665;28;22380;-70
2021/11/21 04:25:11;;;;;;;48.10;42.87;;;7.50;99.90;;;;;;5080446;28;20927;-71
2021/11/21 04:27:40;;;;;;;49.73;41.10;;;7.40;99.90;;;;;;5087553;28;20456;-71
2021/11/21 04:30:09;;;;;;;46.90;40.53;;;7.40;99.90;;;;;;5080620;28;20593;-70
2021/11/21 04:32:37;;;;;;;26.60;25.20;;;7.50;99.90;;;;;;5077918;28;20478;-72
2021/11/21 04:35:06;;;;;;;25.73;24.43;;;7.40;99.90;;;;;;5079986;28;20454;-70
2021/11/21 04:37:35;;;;;;;26.00;24.70;;;7.30;99.90;;;;;;5076192;28;20809;-73
2021/11/21 04:40:02;;;;;;;48.60;41.80;;;7.30;99.90;;;;;;5075416;28;20818;-71
2021/11/21 04:42:29;;;;;;;50.67;41.17;;;7.30;99.90;;;;;;5086370;28;20463;-73
2021/11/21 04:44:56;;;;;;;47.23;38.87;;;7.30;99.90;;;;;;5082525;28;20489;-70
2021/11/21 04:47:23;;;;;;;50.83;40.20;;;7.30;99.90;;;;;;5078261;28;20473;-72
2021/11/21 04:49:51;;;;;;;44.60;37.37;;;7.10;99.90;;;;;;5078763;28;20833;-70
2021/11/21 04:52:19;;;;;;;44.70;38.60;;;7.20;99.90;;;;;;5085521;28;20469;-71
2021/11/21 04:54:47;;;;;;;48.57;40.47;;;7.30;99.90;;;;;;5084024;28;20699;-70
2021/11/21 04:57:16;;;;;;;57.10;42.13;;;7.30;99.90;;;;;;5083585;28;20464;-70
2021/11/21 04:59:44;;;;;;;49.40;41.40;;;7.40;99.90;;;;;;5077091;28;21006;-73
2021/11/21 05:02:11;;;;;;;51.93;41.50;;;7.40;99.90;;;;;;5077271;28;20488;-70
2021/11/21 05:04:38;;;;;;;51.40;40.43;;;7.40;99.90;;;;;;5078118;28;20458;-70
2021/11/21 05:07:06;;;;;;;50.20;41.40;;;7.30;99.90;;;;;;5080785;28;20461;-70
2021/11/21 05:09:34;;;;;;;48.40;43.00;;;7.40;99.90;;;;;;5085466;28;20557;-71
2021/11/21 05:12:03;;;;;;;54.17;41.57;;;7.40;99.90;;;;;;5081693;28;20454;-70
2021/11/21 05:14:30;;;;;;;44.80;40.20;;;7.50;99.90;;;;;;5075125;28;20458;-70
2021/11/21 05:16:59;;;;;;;46.93;41.37;;;7.40;99.90;;;;;;5071661;28;20467;-74
2021/11/21 05:19:26;;;;;;;52.07;42.23;;;7.40;99.90;;;;;;5081730;28;20547;-73
2021/11/21 05:21:53;;;;;;;51.17;41.80;;;7.40;99.90;;;;;;5083580;28;21025;-71
2021/11/21 05:24:24;;;;;;;50.53;43.83;;;7.50;99.90;;;;;;5084348;28;20466;-71
2021/11/21 05:26:52;;;;;;;58.10;45.87;;;7.50;99.90;;;;;;5074656;28;20477;-70
2021/11/21 05:29:20;;;;;;;54.03;42.87;;;7.50;99.90;;;;;;5076874;28;20454;-71
2021/11/21 05:31:47;;;;;;;51.83;42.53;;;7.40;99.90;;;;;;5077622;28;20486;-75
2021/11/21 05:34:15;;;;;;;57.40;44.47;;;7.40;99.90;;;;;;5081592;28;20813;-71
2021/11/21 05:36:44;;;;;;;51.90;43.00;;;7.40;99.90;;;;;;5075235;28;20469;-70
2021/11/21 05:39:11;;;;;;;49.00;43.60;;;7.40;99.90;;;;;;5085324;28;20609;-71
2021/11/21 05:41:38;;;;;;;46.27;41.30;;;7.40;99.90;;;;;;5071384;28;20494;-74
2021/11/21 05:44:05;;;;;;;54.90;44.37;;;7.50;99.90;;;;;;5075994;28;20495;-72
2021/11/21 05:46:35;;;;;;;49.00;43.40;;;7.50;99.90;;;;;;5079111;28;20461;-72
2021/11/21 05:49:02;;;;;;;56.37;44.47;;;7.50;99.90;;;;;;5078460;28;20559;-71
2021/11/21 05:51:29;;;;;;;51.73;42.73;;;7.50;99.90;;;;;;5071981;28;20520;-73
2021/11/21 05:53:56;;;;;;;50.37;39.60;;;7.50;99.90;;;;;;5076158;28;21365;-71
2021/11/21 05:56:24;;;;;;;66.07;44.20;;;7.40;99.90;;;;;;5081157;28;20468;-73
2021/11/21 05:58:51;;;;;;;53.10;41.20;;;7.40;99.90;;;;;;5080838;28;20464;-71
2021/11/21 06:01:18;;;;;;;51.23;42.43;;;7.30;99.90;;;;;;5073891;28;20591;-74
2021/11/21 06:03:46;;;;;;;54.07;44.40;;;7.40;99.90;;;;;;5075580;28;20463;-74
2021/11/21 06:06:13;;;;;;;56.27;43.30;;;7.40;99.90;;;;;;5079544;28;20465;-71
2021/11/21 06:08:40;;;;;;;56.20;43.13;;;7.40;99.90;;;;;;5084554;28;20484;-70
2021/11/21 06:11:07;;;;;;;56.80;42.07;;;7.50;99.90;;;;;;5078792;28;20476;-70
2021/11/21 06:13:34;;;;;;;49.63;39.87;;;7.40;99.90;;;;;;5076690;28;20823;-72
2021/11/21 06:16:01;;;;;;;46.70;38.50;;;7.40;99.90;;;;;;5082573;28;20464;-74
2021/11/21 06:18:27;;;;;;;51.23;40.60;;;7.40;99.90;;;;;;5080924;28;20463;-70
2021/11/21 06:20:56;;;;;;;51.53;40.33;;;7.40;99.90;;;;;;5082602;28;20482;-71
2021/11/21 06:23:23;;;;;;;49.13;39.90;;;7.40;99.90;;;;;;5085580;28;20914;-72
2021/11/21 06:25:49;;;;;;;51.93;40.13;;;7.30;99.90;;;;;;5079626;28;20460;-74
2021/11/21 06:28:19;;;;;;;66.37;45.00;;;7.30;99.90;;;;;;5075936;28;20466;-70
2021/11/21 06:30:47;;;;;;;72.23;47.60;;;7.40;99.90;;;;;;5082191;28;20483;-70
2021/11/21 06:33:14;;;;;;;63.63;45.43;;;7.40;99.90;;;;;;5076870;28;20523;-70
2021/11/21 06:35:42;;;;;;;65.83;47.23;;;7.40;99.90;;;;;;5079671;28;20459;-73
2021/11/21 06:38:10;;;;;;;72.20;47.23;;;7.40;99.90;;;;;;5075349;28;20648;-70
2021/11/21 06:40:37;;;;;;;61.57;46.00;;;7.50;99.90;;;;;;5078504;28;20488;-74
2021/11/21 06:43:04;;;;;;;68.87;45.37;;;7.50;99.90;;;;;;5081760;28;20652;-72
2021/11/21 06:45:32;;;;;;;69.63;47.23;;;7.50;99.90;;;;;;5078053;28;20468;-70
2021/11/21 06:47:58;;;;;;;54.50;43.70;;;7.50;99.90;;;;;;5077472;28;20465;-70
2021/11/21 06:50:26;;;;;;;52.40;42.43;;;7.50;99.90;;;;;;5070300;28;20825;-70
2021/11/21 06:52:55;;;;;;;52.80;41.70;;;7.50;99.90;;;;;;5076748;28;20463;-70
2021/11/21 06:55:23;;;;;;;45.77;40.97;;;7.50;99.90;;;;;;5080635;28;20457;-70
2021/11/21 06:57:51;;;;;;;55.37;41.13;;;7.50;99.90;;;;;;5079687;28;20975;-70
2021/11/21 07:00:19;;;;;;;50.47;39.80;;;7.50;99.90;;;;;;5087636;28;20521;-74
2021/11/21 07:02:46;;;;;;;45.40;39.10;;;7.40;99.90;;;;;;5079978;28;20483;-70
2021/11/21 07:05:13;;;;;;;53.93;41.40;;;7.40;99.90;;;;;;5078761;28;20474;-73
2021/11/21 07:07:41;;;;;;;53.80;40.90;;;7.40;99.90;;;;;;5083630;28;20463;-70
2021/11/21 07:10:11;;;;;;;54.57;41.07;;;7.50;99.90;;;;;;5082211;28;20460;-70
2021/11/21 07:12:40;;;;;;;55.37;39.73;;;7.60;99.90;;;;;;5083645;28;20547;-71
2021/11/21 07:15:07;;;;;;;54.27;41.80;;;7.50;99.90;;;;;;5084296;28;20468;-70
2021/11/21 07:17:34;;;;;;;55.80;40.70;;;7.50;99.90;;;;;;5089675;28;20464;-71
2021/11/21 07:20:01;;;;;;;50.33;40.23;;;7.50;99.90;;;;;;5086495;28;20963;-71
2021/11/21 07:22:28;;;;;;;53.30;41.20;;;7.60;99.90;;;;;;5080552;28;20502;-70
2021/11/21 07:24:55;;;;;;;52.27;39.30;;;7.60;99.90;;;;;;5083778;28;20977;-73
2021/11/21 07:27:22;;;;;;;60.10;41.90;;;7.50;99.90;;;;;;5078710;28;20830;-70
2021/11/21 07:29:50;;;;;;;53.13;40.67;;;7.50;99.90;;;;;;5077489;28;20465;-70
2021/11/21 07:32:17;;;;;;;55.33;42.10;;;7.60;99.90;;;;;;5089977;28;20474;-73
2021/11/21 07:34:44;;;;;;;58.43;43.50;;;7.60;99.90;;;;;;5082637;28;20460;-72
2021/11/21 07:37:11;;;;;;;66.90;50.47;;;7.60;99.90;;;;;;5080564;28;20472;-69
2021/11/21 07:39:39;;;;;;;65.10;51.07;;;7.70;99.90;;;;;;5072400;28;20468;-70
2021/11/21 07:42:06;;;;;;;54.43;48.63;;;7.60;99.90;;;;;;5082982;28;20495;-71
2021/11/21 07:44:33;;;;;;;61.73;49.77;;;7.60;99.90;;;;;;5090662;28;20779;-72
2021/11/21 07:47:01;;;;;;;54.13;46.50;;;7.60;99.90;;;;;;5081048;28;20475;-71
2021/11/21 07:49:28;;;;;;;52.83;46.10;;;7.60;99.90;;;;;;5082678;28;20488;-70
2021/11/21 07:51:55;;;;;;;51.23;45.67;;;7.60;99.90;;;;;;5078096;28;20873;-71
2021/11/21 07:54:22;;;;;;;52.93;44.43;;;7.60;99.90;;;;;;5083923;28;20541;-70
2021/11/21 07:56:49;;;;;;;53.07;44.70;;;7.70;99.90;;;;;;5077936;28;20455;-71
2021/11/21 07:59:17;;;;;;;49.10;42.57;;;7.70;99.90;;;;;;5080410;28;20485;-70
2021/11/21 08:01:46;;;;;;;46.70;41.53;;;7.80;99.90;;;;;;5079169;28;20485;-71
2021/11/21 08:04:14;;;;;;;49.43;41.17;;;7.70;99.90;;;;;;5074318;28;20488;-70
2021/11/21 08:06:42;;;;;;;47.73;42.53;;;7.70;99.90;;;;;;5086108;28;20464;-72
2021/11/21 08:09:09;;;;;;;50.83;42.37;;;7.70;99.90;;;;;;5078011;28;20524;-71
2021/11/21 08:11:37;;;;;;;44.40;38.80;;;7.70;99.90;;;;;;5082010;28;20460;-72
2021/11/21 08:14:04;;;;;;;45.43;40.43;;;7.60;99.90;;;;;;5081366;28;20472;-73
2021/11/21 08:16:31;;;;;;;41.83;37.47;;;7.60;99.90;;;;;;5081445;28;20480;-72
2021/11/21 08:18:58;;;;;;;44.33;38.93;;;7.60;99.90;;;;;;5081446;28;20461;-70
2021/11/21 08:21:26;;;;;;;43.90;39.20;;;7.70;99.90;;;;;;5075180;28;20525;-70
2021/11/21 08:23:53;;;;;;;43.60;39.03;;;7.60;99.90;;;;;;5087929;28;20474;-71
2021/11/21 08:26:20;;;;;;;41.97;37.43;;;7.70;99.90;;;;;;5073432;28;20461;-71
2021/11/21 08:28:47;;;;;;;42.30;38.00;;;7.70;99.90;;;;;;5078508;28;20469;-71
2021/11/21 08:31:14;;;;;;;40.53;36.47;;;7.70;99.90;;;;;;5082828;28;20480;-70
2021/11/21 08:33:42;;;;;;;42.67;38.30;;;7.70;99.90;;;;;;5079783;28;20558;-71
2021/11/21 08:36:09;;;;;;;42.30;38.10;;;7.80;99.90;;;;;;5073931;28;20461;-71
2021/11/21 08:38:37;;;;;;;39.07;35.43;;;7.70;99.90;;;;;;5077231;28;20459;-71
2021/11/21 08:41:04;;;;;;;38.70;34.80;;;7.80;99.90;;;;;;5074510;28;21101;-71
2021/11/21 08:43:31;;;;;;;39.83;36.03;;;7.70;99.90;;;;;;5076707;28;20557;-71
2021/11/21 08:45:58;;;;;;;39.37;35.87;;;7.70;99.90;;;;;;5083618;28;20473;-71
2021/11/21 08:48:25;;;;;;;40.53;36.80;;;7.80;99.90;;;;;;5079284;28;20461;-71
2021/11/21 08:50:53;;;;;;;40.20;36.30;;;7.80;99.90;;;;;;5082650;28;20551;-71
2021/11/21 08:53:20;;;;;;;39.33;35.37;;;7.90;99.90;;;;;;5080161;28;20873;-73
2021/11/21 08:55:48;;;;;;;39.40;35.70;;;8.00;99.90;;;;;;5080315;28;20467;-71
2021/11/21 08:58:16;;;;;;;37.87;34.27;;;8.10;99.90;;;;;;5079326;28;20479;-71
2021/11/21 09:00:43;;;;;;;36.93;33.63;;;8.10;99.90;;;;;;5077471;28;20467;-70
2021/11/21 09:03:10;;;;;;;40.30;36.33;;;8.20;99.90;;;;;;5078070;28;20531;-70
2021/11/21 09:05:37;;;;;;;39.87;36.07;;;8.20;99.90;;;;;;5082672;28;20495;-70
2021/11/21 09:08:05;;;;;;;39.50;35.90;;;8.30;99.90;;;;;;5083033;28;20508;-71
2021/11/21 09:10:32;;;;;;;40.67;36.87;;;8.30;99.90;;;;;;5078493;28;20470;-71
2021/11/21 09:13:01;;;;;;;39.80;36.37;;;8.50;99.90;;;;;;5077679;28;20555;-70
2021/11/21 09:15:28;;;;;;;38.37;34.70;;;8.50;99.90;;;;;;5090189;28;20964;-70
2021/11/21 09:17:55;;;;;;;37.83;34.23;;;8.50;99.90;;;;;;5082371;28;20464;-72
2021/11/21 09:20:23;;;;;;;38.23;34.70;;;8.50;99.90;;;;;;5080221;28;20473;-71
2021/11/21 09:22:50;;;;;;;36.70;33.20;;;8.50;99.90;;;;;;5078823;28;20990;-73
2021/11/21 09:25:17;;;;;;;36.87;33.57;;;8.40;99.90;;;;;;5083032;28;20553;-73
2021/11/21 09:27:45;;;;;;;37.63;33.90;;;8.30;99.90;;;;;;5075454;28;20465;-70
2021/11/21 09:30:14;;;;;;;35.40;32.03;;;8.40;99.90;;;;;;5078898;28;20464;-71
2021/11/21 09:32:41;;;;;;;36.93;33.37;;;8.40;99.90;;;;;;5079633;28;20483;-71
2021/11/21 09:35:09;;;;;;;37.50;33.70;;;8.50;99.90;;;;;;5081288;28;20494;-71
2021/11/21 09:37:37;;;;;;;35.80;32.07;;;8.40;99.90;;;;;;5084621;28;21037;-74
2021/11/21 09:40:06;;;;;;;38.30;34.30;;;8.40;99.90;;;;;;5081506;28;20999;-71
2021/11/21 09:42:34;;;;;;;37.37;33.37;;;8.50;99.90;;;;;;5073433;28;20479;-71
2021/11/21 09:45:01;;;;;;;38.33;34.50;;;8.50;99.90;;;;;;5079851;28;20873;-71
2021/11/21 09:47:29;;;;;;;37.60;33.60;;;8.50;99.90;;;;;;5076439;28;20508;-74
2021/11/21 09:50:00;;;;;;;37.50;33.60;;;8.50;99.90;;;;;;5082952;28;20830;-71
2021/11/21 09:52:27;;;;;;;37.07;33.10;;;8.60;99.90;;;;;;5082375;28;20469;-70
2021/11/21 09:54:54;;;;;;;36.27;32.70;;;8.70;99.90;;;;;;5082482;28;20461;-71
2021/11/21 09:57:22;;;;;;;36.60;32.80;;;8.90;99.90;;;;;;5074977;28;20463;-71
2021/11/21 09:59:51;;;;;;;35.77;32.30;;;8.80;99.90;;;;;;5075431;28;20462;-70
2021/11/21 10:02:20;;;;;;;34.93;31.40;;;8.90;99.90;;;;;;5075136;28;20898;-71
2021/11/21 10:04:49;;;;;;;34.70;30.97;;;8.90;99.90;;;;;;5075437;28;20463;-71
2021/11/21 10:07:24;;;;;;;35.40;31.57;;;9.00;99.90;;;;;;5078989;28;20468;-71
2021/11/21 10:09:52;;;;;;;34.53;31.07;;;8.90;99.90;;;;;;5079838;28;20465;-71
2021/11/21 10:12:19;;;;;;;32.37;28.87;;;9.10;99.90;;;;;;5083225;28;20463;-71
2021/11/21 10:15:02;;;;;;;34.17;30.00;;;9.00;99.90;;;;;;5075078;28;20537;-71
2021/11/21 10:17:31;;;;;;;31.50;27.70;;;9.10;99.90;;;;;;5081891;28;20519;-71
2021/11/21 10:20:09;;;;;;;32.30;28.53;;;9.20;99.90;;;;;;5073870;28;20874;-71
2021/11/21 10:23:02;;;;;;;35.10;29.20;;;9.20;99.90;;;;;;5077925;28;20485;-72
2021/11/21 10:25:55;;;;;;;33.60;28.67;;;9.20;99.90;;;;;;5078123;28;20470;-72
2021/11/21 10:28:27;;;;;;;33.80;28.27;;;9.10;99.90;;;;;;5076621;28;20557;-70
2021/11/21 10:31:03;;;;;;;31.70;28.13;;;9.10;99.90;;;;;;5080461;28;20489;-73
2021/11/21 10:33:33;;;;;;;31.40;27.30;;;9.10;99.90;;;;;;5078045;28;20894;-71
2021/11/21 10:36:03;;;;;;;36.63;29.80;;;9.10;99.90;;;;;;5078735;28;20462;-71
2021/11/21 10:38:51;;;;;;;38.23;28.03;;;9.20;99.90;;;;;;5086339;28;20465;-72
2021/11/21 10:41:21;;;;;;;37.30;27.70;;;9.20;99.90;;;;;;5080025;28;20474;-70
2021/11/21 10:43:54;;;;;;;37.60;30.40;;;9.30;99.90;;;;;;5088276;28;20502;-71
2021/11/21 10:46:33;;;;;;;41.90;29.23;;;9.40;99.90;;;;;;5088827;28;20462;-71
2021/11/21 10:49:15;;;;;;;30.60;27.47;;;9.40;99.90;;;;;;5088377;28;20555;-72
2021/11/21 10:51:45;;;;;;;42.50;29.33;;;9.50;99.90;;;;;;5083138;28;20454;-72
2021/11/21 10:54:20;;;;;;;31.33;27.97;;;9.50;99.90;;;;;;5079959;28;21176;-71
2021/11/21 10:56:49;;;;;;;34.87;25.77;;;9.50;99.90;;;;;;5077748;28;20848;-71
2021/11/21 10:59:47;;;;;;;29.00;26.03;;;9.50;99.90;;;;;;5082634;28;20468;-71
2021/11/21 11:02:19;;;;;;;29.17;26.17;;;9.50;99.90;;;;;;5076896;28;21052;-72
2021/11/21 11:04:59;;;;;;;37.67;28.40;;;9.40;99.90;;;;;;5083074;28;20474;-71
2021/11/21 11:07:28;;;;;;;30.10;26.60;;;9.50;99.90;;;;;;5090398;28;20458;-71
2021/11/21 11:09:56;;;;;;;39.93;27.33;;;9.50;99.90;;;;;;5075452;28;20466;-70
2021/11/21 11:12:24;;;;;;;31.80;26.03;;;9.50;99.90;;;;;;5077572;28;20463;-71
2021/11/21 11:14:53;;;;;;;35.47;26.57;;;9.70;99.90;;;;;;5085403;28;20919;-70
2021/11/21 11:17:20;;;;;;;30.93;26.53;;;9.70;99.90;;;;;;5080539;28;20473;-70
2021/11/21 11:19:48;;;;;;;28.43;25.50;;;9.80;99.90;;;;;;5085678;28;20953;-71
2021/11/21 11:22:15;;;;;;;31.40;26.40;;;9.70;99.90;;;;;;5086192;28;20567;-70
2021/11/21 11:24:45;;;;;;;34.80;29.27;;;9.80;99.90;;;;;;5086195;28;20473;-69
2021/11/21 11:27:22;;;;;;;34.20;30.53;;;9.90;99.90;;;;;;5080528;28;20473;-71
2021/11/21 11:29:51;;;;;;;34.77;29.53;;;9.90;99.90;;;;;;5084386;28;20465;-71
2021/11/21 11:32:28;;;;;;;34.13;30.63;;;9.80;99.90;;;;;;5084291;28;20481;-68
2021/11/21 11:34:57;;;;;;;34.77;30.63;;;9.80;99.90;;;;;;5081070;28;20527;-72
2021/11/21 11:37:43;;;;;;;32.87;29.57;;;9.80;99.90;;;;;;5084494;28;20506;-69
2021/11/21 11:40:42;;;;;;;35.83;31.03;;;9.90;99.90;;;;;;5076682;28;20543;-69
2021/11/21 11:43:48;;;;;;;32.00;28.83;;;9.80;99.90;;;;;;5071503;28;20501;-69
2021/11/21 11:46:24;;;;;;;33.30;29.47;;;9.80;99.90;;;;;;5075192;28;20466;-70
2021/11/21 11:48:53;;;;;;;33.03;28.13;;;9.70;99.90;;;;;;5080872;28;20763;-72
2021/11/21 11:51:23;;;;;;;30.77;27.70;;;9.70;99.90;;;;;;5079961;28;20455;-73
2021/11/21 11:53:52;;;;;;;45.83;27.47;;;9.60;99.90;;;;;;5079707;28;20471;-70
2021/11/21 11:56:24;;;;;;;31.40;27.70;;;9.60;99.90;;;;;;5079837;28;20478;-70
2021/11/21 11:58:55;;;;;;;27.87;25.10;;;9.60;99.90;;;;;;5079022;28;20809;-73
2021/11/21 12:01:55;;;;;;;33.47;26.33;;;9.60;99.90;;;;;;5079092;28;20998;-70
2021/11/21 12:04:53;;;;;;;29.13;25.40;;;9.50;99.90;;;;;;5073000;28;20481;-72
2021/11/21 12:07:29;;;;;;;31.07;25.20;;;9.50;99.90;;;;;;5070822;28;20850;-69
2021/11/21 12:09:59;;;;;;;30.00;24.87;;;9.50;99.90;;;;;;5080270;28;20538;-69
2021/11/21 12:12:53;;;;;;;37.77;25.20;;;9.60;99.90;;;;;;5082604;28;20984;-69
2021/11/21 12:15:28;;;;;;;35.93;25.50;;;9.60;99.90;;;;;;5050290;28;20816;-70
2021/11/21 12:17:57;;;;;;;29.03;24.93;;;9.70;99.90;;;;;;5085651;28;20465;-69
2021/11/21 12:20:44;;;;;;;33.40;25.27;;;9.70;99.90;;;;;;5077974;28;20455;-69
2021/11/21 12:23:11;;;;;;;27.57;24.60;;;9.80;99.90;;;;;;5076630;28;20478;-71
2021/11/21 12:25:39;;;;;;;27.37;24.60;;;10.00;99.90;;;;;;5088016;28;20497;-71
2021/11/21 12:28:07;;;;;;;27.57;23.90;;;9.90;99.90;;;;;;5083405;28;20986;-71
2021/11/21 12:30:37;;;;;;;27.83;23.63;;;10.10;99.90;;;;;;5076141;28;20466;-71
2021/11/21 12:33:06;;;;;;;26.00;23.20;;;10.10;99.90;;;;;;5081075;28;20450;-71
2021/11/21 12:35:35;;;;;;;23.97;21.53;;;10.20;99.90;;;;;;5076891;28;20467;-71
2021/11/21 12:38:04;;;;;;;26.13;22.00;;;10.20;99.90;;;;;;5082730;28;20450;-70
2021/11/21 12:40:35;;;;;;;23.77;21.47;;;10.30;99.90;;;;;;5086435;28;20458;-72
2021/11/21 12:43:05;;;;;;;25.43;22.83;;;10.30;99.90;;;;;;5081486;28;20519;-71
2021/11/21 12:45:37;;;;;;;27.90;22.87;;;10.40;99.90;;;;;;5080253;28;20469;-69